Terminal Aerodrome Forecast
Issued by NWS Sioux Falls, SD

Home | Current Version | Previous Version | Text Only | Print | Product List | Glossary Off
Versions: 1 2 3 4 5 6 7 8 9 10 11 12 13 14 15

000
FTUS43 KFSD 030522
TAFFSD
TAF
KFSD 030522Z 0306/0406 17012G17KT P6SM OVC100
     FM031030 17010KT 4SM -FZDZSN OVC015
     FM031200 18006KT 5SM BR OVC009
     FM031400 27013G18KT 1 1/2SM -SN OVC015
     FM031700 34028G38KT P6SM OVC025
     FM040000 31013KT P6SM BKN150=

USA.gov is the U.S. government's official web portal to all federal, state and local government web resources and services.